Terminal Aerodrome Forecast
Issued by NWS

Home | Current Version | Previous Version | Text Only | Print | Product List | Glossary Off
Versions: 1 2 3 4 5 6 7 8 9 10 11 12 13 14 15 16 17 18 19

000
FTUS43 KMPX 221142
TAFRNH
TAF
KRNH 221142Z 2212/2312 04012KT P6SM VCSH OVC010
     FM221500 03015G23KT 2SM -SN OVC010
     FM221700 03016G24KT 3/4SM -SN OVC010
     FM221800 03016G24KT 1/2SM SN OVC007
     FM222000 02016G24KT 1/2SM SN BLSN OVC007
      TEMPO 2221/2224 02015G23KT 1/4SM +SN VV003
     FM230000 02015G23KT 2SM -SN OVC015
     FM230500 36013KT P6SM VCSH OVC015
     FM230600 36012KT P6SM OVC015=

USA.gov is the U.S. government's official web portal to all federal, state and local government web resources and services.